sensor_id;sensor_type;location;lat;lon;timestamp;pressure;altitude;pressure_sealevel;temperature;humidity
65175;BME280;51761;42.126;24.752;2022-08-03T00:02:24;99447.56;;;25.28;51.24
65175;BME280;51761;42.126;24.752;2022-08-03T00:04:49;99443.16;;;25.16;51.45
65175;BME280;51761;42.126;24.752;2022-08-03T00:07:15;99436.16;;;25.17;51.38
65175;BME280;51761;42.126;24.752;2022-08-03T00:09:40;99437.50;;;25.05;51.09
65175;BME280;51761;42.126;24.752;2022-08-03T00:12:06;99414.47;;;24.87;50.73
65175;BME280;51761;42.126;24.752;2022-08-03T00:14:32;99438.06;;;24.98;51.11
65175;BME280;51761;42.126;24.752;2022-08-03T00:16:57;99438.59;;;24.91;50.90
65175;BME280;51761;42.126;24.752;2022-08-03T00:19:23;99439.63;;;24.88;50.60
65175;BME280;51761;42.126;24.752;2022-08-03T00:21:48;99447.19;;;24.80;50.63
65175;BME280;51761;42.126;24.752;2022-08-03T00:24:14;99450.56;;;24.84;51.24
65175;BME280;51761;42.126;24.752;2022-08-03T00:26:39;99445.09;;;24.86;50.00
65175;BME280;51761;42.126;24.752;2022-08-03T00:29:05;99456.53;;;24.81;52.12
65175;BME280;51761;42.126;24.752;2022-08-03T00:31:30;99448.75;;;24.76;50.43
65175;BME280;51761;42.126;24.752;2022-08-03T00:33:56;99427.00;;;24.56;52.26
65175;BME280;51761;42.126;24.752;2022-08-03T00:36:21;99442.28;;;24.75;50.99
65175;BME280;51761;42.126;24.752;2022-08-03T00:38:47;99445.16;;;24.64;52.35
65175;BME280;51761;42.126;24.752;2022-08-03T00:41:12;99431.69;;;24.43;52.08
65175;BME280;51761;42.126;24.752;2022-08-03T00:43:38;99444.94;;;24.40;52.62
65175;BME280;51761;42.126;24.752;2022-08-03T00:46:03;99451.41;;;24.35;52.32
65175;BME280;51761;42.126;24.752;2022-08-03T00:48:29;99453.75;;;24.37;52.34
65175;BME280;51761;42.126;24.752;2022-08-03T00:50:54;99448.03;;;24.31;53.26
65175;BME280;51761;42.126;24.752;2022-08-03T00:53:20;99458.16;;;24.43;53.07
65175;BME280;51761;42.126;24.752;2022-08-03T00:55:46;99450.63;;;24.29;53.19
65175;BME280;51761;42.126;24.752;2022-08-03T00:58:12;99448.03;;;24.42;53.68
65175;BME280;51761;42.126;24.752;2022-08-03T01:00:39;99451.13;;;24.50;53.31
65175;BME280;51761;42.126;24.752;2022-08-03T01:03:09;99444.94;;;24.40;54.18
65175;BME280;51761;42.126;24.752;2022-08-03T01:08:51;99460.50;;;24.34;53.89
65175;BME280;51761;42.126;24.752;2022-08-03T01:11:54;99450.88;;;24.31;54.36
65175;BME280;51761;42.126;24.752;2022-08-03T01:14:28;99434.31;;;24.14;55.03
65175;BME280;51761;42.126;24.752;2022-08-03T01:17:01;99427.03;;;23.96;53.83
65175;BME280;51761;42.126;24.752;2022-08-03T01:30:34;99452.22;;;24.03;53.93
65175;BME280;51761;42.126;24.752;2022-08-03T01:33:11;99429.38;;;23.92;58.03
65175;BME280;51761;42.126;24.752;2022-08-03T01:35:53;99422.13;;;23.97;54.12
65175;BME280;51761;42.126;24.752;2022-08-03T01:38:28;99449.88;;;24.07;55.42
65175;BME280;51761;42.126;24.752;2022-08-03T01:40:55;99443.38;;;24.07;55.77
65175;BME280;51761;42.126;24.752;2022-08-03T01:43:25;99426.28;;;23.96;55.10
65175;BME280;51761;42.126;24.752;2022-08-03T01:45:54;99432.50;;;24.00;56.36
65175;BME280;51761;42.126;24.752;2022-08-03T01:48:21;99448.84;;;24.10;58.89
65175;BME280;51761;42.126;24.752;2022-08-03T01:50:48;99459.22;;;23.97;55.54
65175;BME280;51761;42.126;24.752;2022-08-03T01:53:16;99456.63;;;23.99;56.03
65175;BME280;51761;42.126;24.752;2022-08-03T01:55:45;99372.28;;;23.48;54.83
65175;BME280;51761;42.126;24.752;2022-08-03T01:58:14;99434.53;;;23.72;58.25
65175;BME280;51761;42.126;24.752;2022-08-03T02:00:41;99466.47;;;23.81;57.18
65175;BME280;51761;42.126;24.752;2022-08-03T02:03:08;99459.41;;;23.77;57.22
65175;BME280;51761;42.126;24.752;2022-08-03T02:05:38;99465.41;;;23.84;57.98
65175;BME280;51761;42.126;24.752;2022-08-03T02:08:07;99449.63;;;23.89;56.15
65175;BME280;51761;42.126;24.752;2022-08-03T02:10:36;99457.66;;;23.96;55.98
65175;BME280;51761;42.126;24.752;2022-08-03T02:13:04;99468.00;;;23.93;55.99
65175;BME280;51761;42.126;24.752;2022-08-03T02:15:30;99456.09;;;23.84;55.20
65175;BME280;51761;42.126;24.752;2022-08-03T02:17:57;99459.72;;;23.84;54.40
65175;BME280;51761;42.126;24.752;2022-08-03T02:20:23;99461.22;;;23.80;55.73
65175;BME280;51761;42.126;24.752;2022-08-03T02:22:49;99440.72;;;23.59;56.11
65175;BME280;51761;42.126;24.752;2022-08-03T02:25:15;99464.34;;;23.76;56.61
65175;BME280;51761;42.126;24.752;2022-08-03T02:27:54;99463.56;;;23.76;59.22
65175;BME280;51761;42.126;24.752;2022-08-03T02:30:21;99453.94;;;23.62;56.16
65175;BME280;51761;42.126;24.752;2022-08-03T02:32:56;99456.78;;;23.51;54.49
65175;BME280;51761;42.126;24.752;2022-08-03T02:35:25;99463.25;;;23.52;55.10
65175;BME280;51761;42.126;24.752;2022-08-03T02:37:57;99460.69;;;23.59;54.15
65175;BME280;51761;42.126;24.752;2022-08-03T02:40:24;99466.63;;;23.50;54.75
65175;BME280;51761;42.126;24.752;2022-08-03T02:42:54;99456.25;;;23.53;56.72
65175;BME280;51761;42.126;24.752;2022-08-03T02:45:23;99462.78;;;23.70;55.03
65175;BME280;51761;42.126;24.752;2022-08-03T02:47:53;99474.69;;;23.63;55.68
65175;BME280;51761;42.126;24.752;2022-08-03T02:50:21;99438.91;;;23.45;55.51
65175;BME280;51761;42.126;24.752;2022-08-03T02:52:48;99475.22;;;23.72;54.74
65175;BME280;51761;42.126;24.752;2022-08-03T02:55:19;99480.16;;;23.72;55.36
65175;BME280;51761;42.126;24.752;2022-08-03T02:57:46;99459.09;;;23.47;55.63
65175;BME280;51761;42.126;24.752;2022-08-03T03:00:12;99475.72;;;23.60;54.57
65175;BME280;51761;42.126;24.752;2022-08-03T03:02:40;99484.78;;;23.58;55.58
65175;BME280;51761;42.126;24.752;2022-08-03T03:05:07;99488.69;;;23.72;55.97
65175;BME280;51761;42.126;24.752;2022-08-03T03:07:35;99491.06;;;23.73;56.52
65175;BME280;51761;42.126;24.752;2022-08-03T03:10:03;99463.53;;;23.54;54.04
65175;BME280;51761;42.126;24.752;2022-08-03T03:12:30;99493.13;;;23.78;56.65
65175;BME280;51761;42.126;24.752;2022-08-03T03:14:55;99488.50;;;23.92;55.08
65175;BME280;51761;42.126;24.752;2022-08-03T03:17:22;99490.34;;;24.00;56.56
65175;BME280;51761;42.126;24.752;2022-08-03T03:19:50;99491.91;;;24.12;55.05
65175;BME280;51761;42.126;24.752;2022-08-03T03:22:16;99487.75;;;24.02;52.92
65175;BME280;51761;42.126;24.752;2022-08-03T03:24:43;99488.25;;;24.01;53.91
65175;BME280;51761;42.126;24.752;2022-08-03T03:27:12;99490.06;;;24.04;56.11
65175;BME280;51761;42.126;24.752;2022-08-03T03:29:38;99509.53;;;24.16;54.79
65175;BME280;51761;42.126;24.752;2022-08-03T03:32:05;99479.44;;;23.88;53.19
65175;BME280;51761;42.126;24.752;2022-08-03T03:34:30;99509.78;;;24.02;56.43
65175;BME280;51761;42.126;24.752;2022-08-03T03:36:57;99513.97;;;24.12;53.57
65175;BME280;51761;42.126;24.752;2022-08-03T03:39:22;99519.91;;;24.03;53.60
65175;BME280;51761;42.126;24.752;2022-08-03T03:41:48;99476.00;;;23.73;53.27
65175;BME280;51761;42.126;24.752;2022-08-03T03:44:14;99512.63;;;23.96;58.19
65175;BME280;51761;42.126;24.752;2022-08-03T03:46:40;99527.59;;;23.75;53.97
65175;BME280;51761;42.126;24.752;2022-08-03T03:49:06;99520.31;;;23.63;54.42
65175;BME280;51761;42.126;24.752;2022-08-03T03:51:32;99506.28;;;23.59;53.58
65175;BME280;51761;42.126;24.752;2022-08-03T03:53:59;99516.94;;;23.59;55.83
65175;BME280;51761;42.126;24.752;2022-08-03T03:56:25;99522.41;;;23.73;54.49
65175;BME280;51761;42.126;24.752;2022-08-03T03:58:51;99523.19;;;23.74;56.31
65175;BME280;51761;42.126;24.752;2022-08-03T04:01:17;99522.69;;;23.75;57.28
65175;BME280;51761;42.126;24.752;2022-08-03T04:03:42;99526.81;;;23.80;54.74
65175;BME280;51761;42.126;24.752;2022-08-03T04:06:08;99521.88;;;23.75;54.22
65175;BME280;51761;42.126;24.752;2022-08-03T04:08:52;99509.44;;;23.67;53.86
65175;BME280;51761;42.126;24.752;2022-08-03T04:11:48;99531.22;;;23.81;56.72
65175;BME280;51761;42.126;24.752;2022-08-03T04:14:26;99536.41;;;23.77;56.63
65175;BME280;51761;42.126;24.752;2022-08-03T04:16:57;99532.31;;;23.83;54.76
65175;BME280;51761;42.126;24.752;2022-08-03T04:19:46;99545.03;;;23.88;53.61
65175;BME280;51761;42.126;24.752;2022-08-03T04:22:16;99548.13;;;23.84;54.75
65175;BME280;51761;42.126;24.752;2022-08-03T04:24:48;99553.78;;;23.79;54.07
65175;BME280;51761;42.126;24.752;2022-08-03T04:27:17;99519.78;;;23.59;54.40
65175;BME280;51761;42.126;24.752;2022-08-03T04:29:48;99549.84;;;23.60;54.12
65175;BME280;51761;42.126;24.752;2022-08-03T04:32:16;99556.31;;;23.60;54.39
65175;BME280;51761;42.126;24.752;2022-08-03T04:34:42;99547.78;;;23.66;54.19
65175;BME280;51761;42.126;24.752;2022-08-03T04:37:11;99551.94;;;23.65;54.02
65175;BME280;51761;42.126;24.752;2022-08-03T04:39:37;99519.78;;;23.59;58.31
65175;BME280;51761;42.126;24.752;2022-08-03T04:42:06;99528.34;;;23.59;55.60
65175;BME280;51761;42.126;24.752;2022-08-03T04:44:36;99557.69;;;23.70;54.21
65175;BME280;51761;42.126;24.752;2022-08-03T04:47:02;99558.16;;;23.63;53.89
65175;BME280;51761;42.126;24.752;2022-08-03T04:49:29;99529.06;;;23.48;53.60
65175;BME280;51761;42.126;24.752;2022-08-03T04:51:54;99555.66;;;23.87;54.31
65175;BME280;51761;42.126;24.752;2022-08-03T04:54:20;99562.16;;;23.99;54.31
65175;BME280;51761;42.126;24.752;2022-08-03T04:56:46;99569.16;;;23.98;53.68
65175;BME280;51761;42.126;24.752;2022-08-03T04:59:12;99559.59;;;24.01;53.38
65175;BME280;51761;42.126;24.752;2022-08-03T05:01:39;99569.47;;;24.11;54.34
65175;BME280;51761;42.126;24.752;2022-08-03T05:04:06;99568.47;;;24.52;56.40
65175;BME280;51761;42.126;24.752;2022-08-03T05:06:31;99541.47;;;24.47;51.89
65175;BME280;51761;42.126;24.752;2022-08-03T05:08:57;99554.47;;;24.65;52.90
65175;BME280;51761;42.126;24.752;2022-08-03T05:11:22;99576.78;;;24.66;52.23
65175;BME280;51761;42.126;24.752;2022-08-03T05:13:48;99584.31;;;24.64;50.75
65175;BME280;51761;42.126;24.752;2022-08-03T05:16:14;99572.91;;;24.53;51.25
65175;BME280;51761;42.126;24.752;2022-08-03T05:18:43;99538.09;;;24.43;51.13
65175;BME280;51761;42.126;24.752;2022-08-03T05:21:09;99580.94;;;24.71;52.04
65175;BME280;51761;42.126;24.752;2022-08-03T05:23:35;99571.84;;;24.67;50.99
65175;BME280;51761;42.126;24.752;2022-08-03T05:26:02;99571.06;;;24.77;50.55
65175;BME280;51761;42.126;24.752;2022-08-03T05:28:27;99581.47;;;24.80;51.04
65175;BME280;51761;42.126;24.752;2022-08-03T05:30:53;99577.28;;;24.76;49.88
65175;BME280;51761;42.126;24.752;2022-08-03T05:33:18;99588.47;;;24.85;50.45
65175;BME280;51761;42.126;24.752;2022-08-03T05:35:44;99591.06;;;24.83;50.61
65175;BME280;51761;42.126;24.752;2022-08-03T05:38:09;99607.16;;;24.97;50.11
65175;BME280;51761;42.126;24.752;2022-08-03T05:40:35;99601.69;;;25.04;50.50
65175;BME280;51761;42.126;24.752;2022-08-03T05:43:00;99571.06;;;24.94;50.26
65175;BME280;51761;42.126;24.752;2022-08-03T05:45:26;99602.47;;;25.10;50.32
65175;BME280;51761;42.126;24.752;2022-08-03T05:47:52;99561.72;;;24.82;50.44
65175;BME280;51761;42.126;24.752;2022-08-03T05:50:18;99569.75;;;24.95;49.61
65175;BME280;51761;42.126;24.752;2022-08-03T05:52:44;99601.91;;;25.39;49.64
65175;BME280;51761;42.126;24.752;2022-08-03T05:55:10;99595.13;;;25.48;49.68
65175;BME280;51761;42.126;24.752;2022-08-03T05:57:37;99610.13;;;25.65;51.15
65175;BME280;51761;42.126;24.752;2022-08-03T06:00:10;99602.31;;;25.71;49.19
65175;BME280;51761;42.126;24.752;2022-08-03T06:02:36;99606.22;;;25.68;48.73
65175;BME280;51761;42.126;24.752;2022-08-03T06:05:02;99604.06;;;25.79;48.73
65175;BME280;51761;42.126;24.752;2022-08-03T06:07:28;99605.63;;;25.91;50.17
65175;BME280;51761;42.126;24.752;2022-08-03T06:09:54;99602.44;;;26.00;50.95
65175;BME280;51761;42.126;24.752;2022-08-03T06:12:19;99582.66;;;26.02;51.79
65175;BME280;51761;42.126;24.752;2022-08-03T06:14:45;99608.91;;;26.46;49.62
65175;BME280;51761;42.126;24.752;2022-08-03T06:17:11;99557.25;;;26.28;49.11
65175;BME280;51761;42.126;24.752;2022-08-03T06:19:36;99600.31;;;26.52;48.50
65175;BME280;51761;42.126;24.752;2022-08-03T06:22:02;99536.38;;;25.98;48.25
65175;BME280;51761;42.126;24.752;2022-08-03T06:24:27;99614.16;;;26.77;47.27
65175;BME280;51761;42.126;24.752;2022-08-03T06:26:53;99616.78;;;26.75;46.92
65175;BME280;51761;42.126;24.752;2022-08-03T06:29:19;99610.78;;;26.79;46.52
65175;BME280;51761;42.126;24.752;2022-08-03T06:31:44;99619.25;;;26.90;47.99
65175;BME280;51761;42.126;24.752;2022-08-03T06:34:10;99612.75;;;26.60;47.07
65175;BME280;51761;42.126;24.752;2022-08-03T06:36:35;99619.38;;;26.38;48.13
65175;BME280;51761;42.126;24.752;2022-08-03T06:39:01;99605.16;;;26.27;48.02
65175;BME280;51761;42.126;24.752;2022-08-03T06:41:27;99587.78;;;26.14;47.97
65175;BME280;51761;42.126;24.752;2022-08-03T06:43:53;99610.91;;;26.22;48.35
65175;BME280;51761;42.126;24.752;2022-08-03T06:46:19;99624.41;;;26.27;47.83
65175;BME280;51761;42.126;24.752;2022-08-03T06:48:44;99619.53;;;26.16;47.11
65175;BME280;51761;42.126;24.752;2022-08-03T06:51:10;99625.06;;;26.09;47.24
65175;BME280;51761;42.126;24.752;2022-08-03T06:53:36;99618.25;;;26.12;48.57
65175;BME280;51761;42.126;24.752;2022-08-03T06:56:03;99584.97;;;26.09;48.71
65175;BME280;51761;42.126;24.752;2022-08-03T06:58:29;99623.81;;;26.39;47.66
65175;BME280;51761;42.126;24.752;2022-08-03T07:00:54;99577.38;;;26.17;46.65
65175;BME280;51761;42.126;24.752;2022-08-03T07:03:20;99600.66;;;26.72;45.88
65175;BME280;51761;42.126;24.752;2022-08-03T07:05:45;99599.56;;;26.81;46.11
65175;BME280;51761;42.126;24.752;2022-08-03T07:08:12;99616.19;;;27.41;44.46
65175;BME280;51761;42.126;24.752;2022-08-03T07:10:41;99610.25;;;27.81;42.56
65175;BME280;51761;42.126;24.752;2022-08-03T07:13:07;99612.28;;;29.49;40.20
65175;BME280;51761;42.126;24.752;2022-08-03T07:15:33;99613.91;;;28.87;40.77
65175;BME280;51761;42.126;24.752;2022-08-03T07:17:59;99605.69;;;27.91;41.25
65175;BME280;51761;42.126;24.752;2022-08-03T07:20:24;99621.47;;;28.40;41.96
65175;BME280;51761;42.126;24.752;2022-08-03T07:26:11;99613.66;;;27.98;41.77
65175;BME280;51761;42.126;24.752;2022-08-03T07:28:37;99608.44;;;28.71;42.84
65175;BME280;51761;42.126;24.752;2022-08-03T07:31:02;99605.38;;;30.63;38.47
65175;BME280;51761;42.126;24.752;2022-08-03T07:33:28;99606.56;;;31.08;37.70
65175;BME280;51761;42.126;24.752;2022-08-03T07:35:53;99623.09;;;30.67;38.75
65175;BME280;51761;42.126;24.752;2022-08-03T07:38:19;99615.88;;;31.63;37.42
65175;BME280;51761;42.126;24.752;2022-08-03T07:40:44;99603.13;;;32.22;35.48
65175;BME280;51761;42.126;24.752;2022-08-03T07:43:10;99616.00;;;32.71;34.34
65175;BME280;51761;42.126;24.752;2022-08-03T07:45:35;99603.69;;;33.15;33.59
65175;BME280;51761;42.126;24.752;2022-08-03T07:48:01;99614.97;;;32.61;35.39
65175;BME280;51761;42.126;24.752;2022-08-03T07:50:26;99625.72;;;33.26;34.54
65175;BME280;51761;42.126;24.752;2022-08-03T07:52:52;99603.06;;;33.84;33.49
65175;BME280;51761;42.126;24.752;2022-08-03T07:55:22;99615.38;;;34.86;31.84
65175;BME280;51761;42.126;24.752;2022-08-03T07:58:13;99621.66;;;34.36;32.69
65175;BME280;51761;42.126;24.752;2022-08-03T08:00:42;99616.06;;;34.69;31.95
65175;BME280;51761;42.126;24.752;2022-08-03T08:03:09;99605.66;;;34.67;32.11
65175;BME280;51761;42.126;24.752;2022-08-03T08:05:35;99616.44;;;34.73;31.54
65175;BME280;51761;42.126;24.752;2022-08-03T08:08:01;99633.94;;;34.51;31.70
65175;BME280;51761;42.126;24.752;2022-08-03T08:10:28;99582.97;;;34.41;32.37
65175;BME280;51761;42.126;24.752;2022-08-03T08:12:54;99631.66;;;35.13;32.03
65175;BME280;51761;42.126;24.752;2022-08-03T08:15:21;99636.63;;;35.20;32.22
65175;BME280;51761;42.126;24.752;2022-08-03T08:17:49;99632.53;;;34.59;31.87
65175;BME280;51761;42.126;24.752;2022-08-03T08:20:20;99642.19;;;34.23;32.69
65175;BME280;51761;42.126;24.752;2022-08-03T08:22:46;99635.94;;;33.57;33.53
65175;BME280;51761;42.126;24.752;2022-08-03T08:25:12;99607.16;;;33.44;34.51
65175;BME280;51761;42.126;24.752;2022-08-03T08:27:46;99613.38;;;33.40;33.63
65175;BME280;51761;42.126;24.752;2022-08-03T08:30:13;99611.81;;;33.32;34.66
65175;BME280;51761;42.126;24.752;2022-08-03T08:32:39;99607.16;;;33.66;34.11
65175;BME280;51761;42.126;24.752;2022-08-03T08:35:05;99630.72;;;33.55;34.23
65175;BME280;51761;42.126;24.752;2022-08-03T08:37:31;99545.19;;;33.54;33.14
65175;BME280;51761;42.126;24.752;2022-08-03T08:39:57;99621.09;;;33.30;34.06
65175;BME280;51761;42.126;24.752;2022-08-03T08:42:23;99617.22;;;33.05;34.46
65175;BME280;51761;42.126;24.752;2022-08-03T08:44:48;99623.75;;;33.58;34.95
65175;BME280;51761;42.126;24.752;2022-08-03T08:47:14;99595.59;;;33.51;33.47
65175;BME280;51761;42.126;24.752;2022-08-03T08:49:40;99636.53;;;33.33;34.04
65175;BME280;51761;42.126;24.752;2022-08-03T08:52:09;99619.47;;;32.77;35.65
65175;BME280;51761;42.126;24.752;2022-08-03T08:54:38;99630.09;;;32.24;36.77
65175;BME280;51761;42.126;24.752;2022-08-03T08:57:06;99624.38;;;32.47;35.82
65175;BME280;51761;42.126;24.752;2022-08-03T08:59:32;99622.97;;;33.13;35.11
65175;BME280;51761;42.126;24.752;2022-08-03T09:02:01;99631.72;;;32.40;34.92
65175;BME280;51761;42.126;24.752;2022-08-03T09:04:30;99614.34;;;31.97;36.51
65175;BME280;51761;42.126;24.752;2022-08-03T09:06:55;99613.13;;;32.93;35.86
65175;BME280;51761;42.126;24.752;2022-08-03T09:09:21;99614.69;;;33.54;34.92
65175;BME280;51761;42.126;24.752;2022-08-03T09:11:49;99608.28;;;34.40;32.91
65175;BME280;51761;42.126;24.752;2022-08-03T09:14:15;99613.66;;;33.97;32.64
65175;BME280;51761;42.126;24.752;2022-08-03T09:17:00;99607.38;;;33.23;32.92
65175;BME280;51761;42.126;24.752;2022-08-03T09:19:28;99620.31;;;33.75;32.47
65175;BME280;51761;42.126;24.752;2022-08-03T09:22:09;99581.16;;;34.06;32.32
65175;BME280;51761;42.126;24.752;2022-08-03T09:24:38;99606.94;;;34.73;32.06
65175;BME280;51761;42.126;24.752;2022-08-03T09:27:18;99601.06;;;35.54;30.36
65175;BME280;51761;42.126;24.752;2022-08-03T09:29:47;99596.63;;;35.36;30.54
65175;BME280;51761;42.126;24.752;2022-08-03T09:32:13;99596.53;;;35.43;30.06
65175;BME280;51761;42.126;24.752;2022-08-03T09:34:38;99597.03;;;35.91;29.12
65175;BME280;51761;42.126;24.752;2022-08-03T09:37:12;99588.88;;;35.55;30.35
65175;BME280;51761;42.126;24.752;2022-08-03T09:39:38;99580.09;;;35.21;30.44
65175;BME280;51761;42.126;24.752;2022-08-03T09:42:16;99597.59;;;35.06;30.29
65175;BME280;51761;42.126;24.752;2022-08-03T09:44:47;99593.69;;;34.87;30.53
65175;BME280;51761;42.126;24.752;2022-08-03T09:47:16;99591.97;;;35.08;30.17
65175;BME280;51761;42.126;24.752;2022-08-03T09:50:03;99560.69;;;35.24;30.93
65175;BME280;51761;42.126;24.752;2022-08-03T09:52:47;99566.56;;;35.58;30.10
65175;BME280;51761;42.126;24.752;2022-08-03T09:55:15;99574.63;;;35.67;29.16
65175;BME280;51761;42.126;24.752;2022-08-03T09:57:43;99567.47;;;35.68;29.47
65175;BME280;51761;42.126;24.752;2022-08-03T10:00:15;99554.19;;;35.91;30.73
65175;BME280;51761;42.126;24.752;2022-08-03T10:02:42;99568.00;;;36.34;29.28
65175;BME280;51761;42.126;24.752;2022-08-03T10:05:11;99534.56;;;36.52;28.91
65175;BME280;51761;42.126;24.752;2022-08-03T10:07:42;99554.81;;;36.86;28.80
65175;BME280;51761;42.126;24.752;2022-08-03T10:10:08;99562.19;;;36.87;28.07
65175;BME280;51761;42.126;24.752;2022-08-03T10:12:36;99545.19;;;36.57;29.21
65175;BME280;51761;42.126;24.752;2022-08-03T10:15:02;99563.47;;;36.67;29.45
65175;BME280;51761;42.126;24.752;2022-08-03T10:17:28;99507.53;;;36.59;28.52
65175;BME280;51761;42.126;24.752;2022-08-03T10:19:53;99552.69;;;36.86;28.76
65175;BME280;51761;42.126;24.752;2022-08-03T10:22:22;99554.72;;;36.40;29.26
65175;BME280;51761;42.126;24.752;2022-08-03T10:24:52;99558.88;;;35.87;30.17
65175;BME280;51761;42.126;24.752;2022-08-03T10:27:22;99561.66;;;35.43;31.14
65175;BME280;51761;42.126;24.752;2022-08-03T10:29:55;99527.59;;;35.02;30.78
65175;BME280;51761;42.126;24.752;2022-08-03T10:32:30;99528.56;;;34.49;31.91
65175;BME280;51761;42.126;24.752;2022-08-03T10:35:06;99532.78;;;34.23;32.86
65175;BME280;51761;42.126;24.752;2022-08-03T10:37:37;99551.38;;;34.13;32.95
65175;BME280;51761;42.126;24.752;2022-08-03T10:40:07;99542.63;;;33.81;33.16
65175;BME280;51761;42.126;24.752;2022-08-03T10:42:34;99486.19;;;33.27;33.57
65175;BME280;51761;42.126;24.752;2022-08-03T10:45:08;99549.34;;;33.91;33.47
65175;BME280;51761;42.126;24.752;2022-08-03T10:47:39;99524.84;;;34.24;33.20
65175;BME280;51761;42.126;24.752;2022-08-03T10:50:05;99535.19;;;34.42;33.81
65175;BME280;51761;42.126;24.752;2022-08-03T10:52:32;99546.38;;;34.45;32.40
65175;BME280;51761;42.126;24.752;2022-08-03T10:54:57;99543.25;;;34.19;32.94
65175;BME280;51761;42.126;24.752;2022-08-03T10:57:52;99546.25;;;34.67;31.92
65175;BME280;51761;42.126;24.752;2022-08-03T11:00:26;99523.56;;;34.73;32.63
65175;BME280;51761;42.126;24.752;2022-08-03T11:05:41;99522.03;;;35.21;32.14
65175;BME280;51761;42.126;24.752;2022-08-03T11:08:26;99523.69;;;35.66;31.27
65175;BME280;51761;42.126;24.752;2022-08-03T11:11:00;99491.28;;;35.86;30.09
65175;BME280;51761;42.126;24.752;2022-08-03T11:13:28;99440.38;;;35.34;30.39
65175;BME280;51761;42.126;24.752;2022-08-03T11:15:59;99511.66;;;36.13;30.46
65175;BME280;51761;42.126;24.752;2022-08-03T11:18:25;99512.00;;;36.43;29.21
65175;BME280;51761;42.126;24.752;2022-08-03T11:20:52;99522.63;;;36.84;29.36
65175;BME280;51761;42.126;24.752;2022-08-03T11:23:40;99509.59;;;36.75;28.55
65175;BME280;51761;42.126;24.752;2022-08-03T11:28:35;99496.88;;;36.44;29.51
65175;BME280;51761;42.126;24.752;2022-08-03T11:34:06;99503.28;;;37.15;28.86
65175;BME280;51761;42.126;24.752;2022-08-03T11:37:33;99492.56;;;37.17;28.52
65175;BME280;51761;42.126;24.752;2022-08-03T11:39:44;99488.59;;;36.77;29.37
65175;BME280;51761;42.126;24.752;2022-08-03T11:44:53;99483.97;;;36.12;28.70
65175;BME280;51761;42.126;24.752;2022-08-03T11:47:19;99477.13;;;36.00;28.68
65175;BME280;51761;42.126;24.752;2022-08-03T11:49:49;99479.97;;;35.90;29.56
65175;BME280;51761;42.126;24.752;2022-08-03T11:52:16;99484.44;;;35.57;29.51
65175;BME280;51761;42.126;24.752;2022-08-03T11:54:42;99484.88;;;35.20;30.74
65175;BME280;51761;42.126;24.752;2022-08-03T11:57:08;99479.94;;;35.05;30.88
65175;BME280;51761;42.126;24.752;2022-08-03T11:59:35;99480.94;;;35.25;29.98
65175;BME280;51761;42.126;24.752;2022-08-03T12:02:12;99466.69;;;35.19;30.59
65175;BME280;51761;42.126;24.752;2022-08-03T12:04:50;99477.28;;;35.24;30.67
65175;BME280;51761;42.126;24.752;2022-08-03T12:07:16;99486.50;;;34.89;31.13
65175;BME280;51761;42.126;24.752;2022-08-03T12:09:43;99467.47;;;35.12;30.10
65175;BME280;51761;42.126;24.752;2022-08-03T12:12:08;99479.53;;;34.67;30.73
65175;BME280;51761;42.126;24.752;2022-08-03T12:14:34;99468.31;;;34.08;31.46
65175;BME280;51761;42.126;24.752;2022-08-03T12:17:00;99472.56;;;33.75;31.47
65175;BME280;51761;42.126;24.752;2022-08-03T12:19:25;99473.38;;;33.53;32.53
65175;BME280;51761;42.126;24.752;2022-08-03T12:21:51;99475.59;;;33.00;33.06
65175;BME280;51761;42.126;24.752;2022-08-03T12:24:16;99462.53;;;32.77;32.10
65175;BME280;51761;42.126;24.752;2022-08-03T12:26:47;99401.19;;;32.18;32.75
65175;BME280;51761;42.126;24.752;2022-08-03T12:29:19;99468.47;;;32.64;33.19
65175;BME280;51761;42.126;24.752;2022-08-03T12:31:46;99463.81;;;32.46;34.26
65175;BME280;51761;42.126;24.752;2022-08-03T12:34:11;99428.13;;;32.13;33.49
65175;BME280;51761;42.126;24.752;2022-08-03T12:36:37;99466.72;;;32.46;33.97
65175;BME280;51761;42.126;24.752;2022-08-03T12:39:13;99460.53;;;32.42;32.33
65175;BME280;51761;42.126;24.752;2022-08-03T12:41:39;99461.13;;;32.55;34.18
65175;BME280;51761;42.126;24.752;2022-08-03T12:44:06;99460.75;;;32.88;33.34
65175;BME280;51761;42.126;24.752;2022-08-03T12:46:34;99465.72;;;33.25;32.87
65175;BME280;51761;42.126;24.752;2022-08-03T12:51:27;99448.72;;;33.84;32.19
65175;BME280;51761;42.126;24.752;2022-08-03T12:53:54;99437.53;;;34.20;31.68
65175;BME280;51761;42.126;24.752;2022-08-03T12:56:20;99421.00;;;34.30;30.63
65175;BME280;51761;42.126;24.752;2022-08-03T12:58:47;99440.19;;;34.25;30.45
65175;BME280;51761;42.126;24.752;2022-08-03T13:01:15;99441.75;;;34.92;28.51
65175;BME280;51761;42.126;24.752;2022-08-03T13:03:46;99415.41;;;35.14;28.73
65175;BME280;51761;42.126;24.752;2022-08-03T13:06:23;99407.38;;;34.88;27.83
65175;BME280;51761;42.126;24.752;2022-08-03T13:09:04;99403.97;;;35.16;28.49
65175;BME280;51761;42.126;24.752;2022-08-03T13:11:30;99431.47;;;35.32;28.00
65175;BME280;51761;42.126;24.752;2022-08-03T13:13:55;99407.75;;;35.26;28.19
65175;BME280;51761;42.126;24.752;2022-08-03T13:16:21;99423.09;;;35.36;29.33
65175;BME280;51761;42.126;24.752;2022-08-03T13:18:47;99422.94;;;35.51;28.70
65175;BME280;51761;42.126;24.752;2022-08-03T13:21:15;99403.34;;;35.01;29.41
65175;BME280;51761;42.126;24.752;2022-08-03T13:23:41;99417.41;;;34.70;29.00
65175;BME280;51761;42.126;24.752;2022-08-03T13:26:07;99399.44;;;34.16;29.28
65175;BME280;51761;42.126;24.752;2022-08-03T13:28:33;99415.06;;;33.88;30.06